Time;durP1;ratioP1;P1;durP2;ratioP2;P2;SDS_P1;SDS_P2;PMS_P1;PMS_P2;Temp;Humidity;BMP_temperature;BMP_pressure;BME280_temperature;BME280_humidity;BME280_pressure;Samples;Min_cycle;Max_cycle;Signal;HPM_P1;HPM_P2
2022/12/26 00:01:40;;;;;;;1.23;1.13;;;11.00;97.30;;;;;;4980865;28;20212;-88
2022/12/26 00:04:06;;;;;;;32.43;2.53;;;11.00;97.30;;;;;;4982998;28;20438;-88
2022/12/26 00:06:32;;;;;;;1.00;1.00;;;11.00;97.30;;;;;;4984455;28;21005;-89
2022/12/26 00:09:03;;;;;;;2.20;1.33;;;11.00;97.30;;;;;;4980472;28;20197;-88
2022/12/26 00:11:29;;;;;;;3.00;2.77;;;11.00;97.30;;;;;;4982552;28;20490;-89
2022/12/26 00:13:57;;;;;;;2.70;2.13;;;11.00;97.30;;;;;;4979063;28;20551;-89
2022/12/26 00:16:22;;;;;;;1.13;1.03;;;10.90;97.30;;;;;;4982771;28;20179;-88
2022/12/26 00:18:48;;;;;;;1.33;1.30;;;10.90;97.30;;;;;;4982944;28;20540;-88
2022/12/26 00:21:15;;;;;;;1.50;1.27;;;10.90;97.30;;;;;;4979255;28;20245;-88
2022/12/26 00:23:41;;;;;;;1.20;1.10;;;10.90;97.30;;;;;;4982320;28;20417;-88
2022/12/26 00:26:16;;;;;;;1.60;1.60;;;10.90;97.30;;;;;;4979998;28;20916;-88
2022/12/26 00:28:42;;;;;;;1.47;1.33;;;10.90;97.30;;;;;;4981402;28;20442;-89
2022/12/26 00:31:11;;;;;;;1.30;1.20;;;10.90;97.30;;;;;;4979488;28;20461;-89
2022/12/26 00:33:37;;;;;;;1.40;1.30;;;10.90;97.30;;;;;;4982374;28;20981;-88
2022/12/26 00:36:06;;;;;;;9.50;3.33;;;10.80;97.30;;;;;;4980723;28;20445;-88
2022/12/26 00:38:33;;;;;;;1.67;1.67;;;10.80;97.30;;;;;;4977310;28;21363;-87
2022/12/26 00:40:59;;;;;;;1.77;1.43;;;10.80;97.30;;;;;;4976098;28;20529;-89
2022/12/26 00:43:25;;;;;;;2.17;2.00;;;10.80;97.30;;;;;;4970948;28;20521;-88
2022/12/26 00:45:50;;;;;;;10.03;1.83;;;10.90;97.30;;;;;;4973026;28;20645;-88
2022/12/26 00:48:15;;;;;;;1.50;1.30;;;10.90;97.30;;;;;;4984308;28;20299;-87
2022/12/26 00:50:41;;;;;;;4.97;1.43;;;10.90;97.30;;;;;;4986382;28;20185;-88
2022/12/26 00:53:06;;;;;;;2.03;1.60;;;10.90;97.30;;;;;;4970785;28;20210;-87
2022/12/26 00:55:32;;;;;;;3.43;1.77;;;10.90;97.30;;;;;;4975971;28;20268;-87
2022/12/26 00:57:57;;;;;;;1.73;1.63;;;10.90;97.30;;;;;;4984066;28;20182;-89
2022/12/26 01:00:23;;;;;;;2.70;1.37;;;10.90;97.30;;;;;;4987132;28;20190;-87
2022/12/26 01:02:49;;;;;;;1.07;1.00;;;10.90;97.30;;;;;;4983485;28;20613;-87
2022/12/26 01:05:14;;;;;;;2.00;1.47;;;10.90;97.30;;;;;;4988875;28;20764;-87
2022/12/26 01:07:40;;;;;;;2.20;1.90;;;10.90;97.30;;;;;;4977800;28;20545;-88
2022/12/26 01:10:07;;;;;;;1.73;1.47;;;10.90;97.30;;;;;;4977443;28;20241;-87
2022/12/26 01:12:33;;;;;;;1.83;1.47;;;10.90;97.30;;;;;;4983275;28;20691;-86
2022/12/26 01:15:00;;;;;;;1.73;1.63;;;10.90;97.30;;;;;;4989750;28;20493;-87
2022/12/26 01:17:27;;;;;;;3.13;1.97;;;10.90;97.30;;;;;;4981322;28;20285;-87
2022/12/26 01:19:52;;;;;;;1.63;1.10;;;10.90;97.30;;;;;;4983077;28;20859;-87
2022/12/26 01:22:18;;;;;;;1.17;1.07;;;10.90;97.30;;;;;;4990232;28;20445;-87
2022/12/26 01:24:44;;;;;;;1.73;1.63;;;10.90;97.30;;;;;;4989781;28;20217;-87
2022/12/26 01:27:09;;;;;;;1.33;1.27;;;10.90;97.30;;;;;;4985435;28;20186;-89
2022/12/26 01:29:35;;;;;;;2.20;2.00;;;10.80;97.30;;;;;;4984505;28;20249;-88
2022/12/26 01:32:00;;;;;;;1.70;1.40;;;10.80;97.30;;;;;;4971007;28;20269;-88
2022/12/26 01:34:26;;;;;;;2.60;2.40;;;10.90;97.30;;;;;;4971464;28;20305;-86
2022/12/26 01:36:52;;;;;;;1.50;1.40;;;10.90;97.30;;;;;;4976248;28;20190;-87
2022/12/26 01:39:17;;;;;;;1.43;1.33;;;10.90;97.30;;;;;;4974897;28;20183;-86
2022/12/26 01:41:43;;;;;;;3.20;1.47;;;10.90;97.30;;;;;;4977371;28;20457;-87
2022/12/26 01:44:46;;;;;;;2.80;2.60;;;11.00;97.30;;;;;;4978557;28;20612;-87
2022/12/26 01:47:12;;;;;;;1.93;1.87;;;11.00;97.30;;;;;;4977754;28;20199;-87
2022/12/26 01:49:44;;;;;;;2.13;2.00;;;11.00;97.30;;;;;;4973408;28;20437;-86
2022/12/26 01:52:16;;;;;;;15.73;1.80;;;11.00;97.30;;;;;;4976582;28;20468;-87
2022/12/26 01:54:46;;;;;;;5.27;1.80;;;11.00;97.30;;;;;;4980904;28;20500;-87
2022/12/26 01:57:20;;;;;;;1.30;1.20;;;11.00;97.30;;;;;;4988707;28;20986;-87
2022/12/26 01:59:47;;;;;;;3.63;1.73;;;11.00;97.30;;;;;;4982812;28;20511;-86
2022/12/26 02:02:13;;;;;;;2.10;1.43;;;11.00;97.30;;;;;;4980939;28;20452;-88
2022/12/26 02:07:27;;;;;;;1.60;1.50;;;11.00;97.30;;;;;;4980393;28;20508;-87
2022/12/26 02:09:53;;;;;;;1.30;1.20;;;11.00;97.30;;;;;;4985674;28;20445;-87
2022/12/26 02:12:29;;;;;;;2.23;2.10;;;11.00;97.30;;;;;;4985913;28;20236;-87
2022/12/26 02:14:56;;;;;;;2.00;1.73;;;11.00;97.30;;;;;;4989337;28;20916;-88
2022/12/26 02:17:23;;;;;;;1.10;1.00;;;11.00;97.30;;;;;;4986480;28;20444;-86
2022/12/26 02:19:58;;;;;;;1.70;1.43;;;11.00;97.30;;;;;;4973218;28;20451;-88
2022/12/26 02:22:52;;;;;;;1.10;1.00;;;11.00;97.30;;;;;;4974371;28;20437;-87
2022/12/26 02:25:30;;;;;;;3.03;1.80;;;11.10;97.30;;;;;;4969819;28;20426;-88
2022/12/26 02:28:46;;;;;;;1.90;1.57;;;11.10;97.30;;;;;;4989806;28;20969;-88
2022/12/26 02:31:30;;;;;;;1.27;1.20;;;11.10;97.30;;;;;;4930828;28;20462;-87
2022/12/26 02:34:16;;;;;;;2.60;1.63;;;11.10;97.30;;;;;;4988581;28;20484;-87
2022/12/26 02:36:57;;;;;;;1.37;1.27;;;11.10;97.30;;;;;;4989769;28;20453;-87
2022/12/26 02:39:43;;;;;;;1.00;0.90;;;11.10;97.30;;;;;;4983949;28;20500;-86
2022/12/26 02:42:53;;;;;;;2.20;1.77;;;11.20;97.30;;;;;;4986717;28;20453;-86
2022/12/26 02:48:44;;;;;;;1.77;1.60;;;11.20;97.30;;;;;;4974480;28;20472;-87
2022/12/26 03:15:09;;;;;;;2.50;1.53;;;11.50;97.30;;;;;;4978252;28;20476;-86
2022/12/26 03:17:43;;;;;;;1.30;1.20;;;11.40;97.30;;;;;;4989934;28;20449;-86
2022/12/26 03:20:16;;;;;;;0.90;0.80;;;11.40;97.30;;;;;;4981853;28;20438;-87
2022/12/26 03:22:44;;;;;;;1.57;1.47;;;11.40;97.30;;;;;;4980389;28;20449;-88
2022/12/26 03:28:25;;;;;;;1.30;1.13;;;11.40;97.30;;;;;;4978596;28;20453;-86
2022/12/26 03:30:52;;;;;;;1.27;1.17;;;11.40;97.30;;;;;;4972441;28;20528;-87
2022/12/26 03:36:32;;;;;;;1.63;1.47;;;11.50;97.30;;;;;;4986982;28;20560;-88
2022/12/26 03:39:19;;;;;;;1.53;1.20;;;11.50;97.30;;;;;;4978220;28;20995;-87
2022/12/26 04:19:57;;;;;;;1.77;1.67;;;11.40;97.30;;;;;;4955778;28;20425;-86
2022/12/26 04:45:34;;;;;;;1.40;1.30;;;11.40;97.30;;;;;;4954680;28;20577;-86
2022/12/26 04:50:49;;;;;;;1.80;1.70;;;11.40;97.30;;;;;;4956600;28;20448;-85
2022/12/26 04:53:15;;;;;;;1.20;1.10;;;11.40;97.30;;;;;;4955032;29;20478;-84
2022/12/26 04:55:41;;;;;;;1.27;1.17;;;11.40;97.30;;;;;;4957018;28;20434;-85
2022/12/26 04:58:06;;;;;;;2.50;1.70;;;11.40;97.30;;;;;;4955838;28;20183;-84
2022/12/26 05:00:32;;;;;;;1.10;1.00;;;11.40;97.30;;;;;;4955031;29;20193;-83
2022/12/26 05:11:18;;;;;;;4.40;1.67;;;11.50;97.30;;;;;;4949219;28;20442;-86
2022/12/26 05:13:43;;;;;;;2.40;1.70;;;11.50;97.30;;;;;;4950282;28;20466;-84
2022/12/26 05:29:56;;;;;;;1.70;1.60;;;11.50;97.30;;;;;;4952277;28;20443;-83
2022/12/26 05:35:06;;;;;;;1.63;1.23;;;11.50;97.30;;;;;;4952937;28;20485;-85
2022/12/26 05:37:32;;;;;;;2.57;2.40;;;11.50;97.30;;;;;;4956026;28;20451;-85
2022/12/26 05:39:57;;;;;;;0.90;0.80;;;11.50;97.30;;;;;;4953554;28;20647;-83
2022/12/26 05:42:23;;;;;;;1.00;0.90;;;11.40;97.30;;;;;;4952124;29;20286;-86
2022/12/26 05:44:48;;;;;;;2.50;1.37;;;11.40;97.30;;;;;;4953891;28;20216;-88
2022/12/26 05:47:13;;;;;;;1.20;1.10;;;11.40;97.30;;;;;;4952434;29;20194;-89
2022/12/26 05:49:39;;;;;;;1.10;1.00;;;11.40;97.30;;;;;;4952153;29;20553;-84
2022/12/26 05:52:04;;;;;;;2.67;2.23;;;11.40;97.30;;;;;;4951691;28;20206;-86
2022/12/26 05:54:30;;;;;;;1.73;1.63;;;11.40;97.30;;;;;;4951936;28;20227;-84
2022/12/26 05:56:55;;;;;;;2.30;1.83;;;11.40;97.30;;;;;;4952419;29;20214;-84
2022/12/26 05:59:21;;;;;;;1.67;1.20;;;11.30;97.30;;;;;;4953042;29;20268;-86
2022/12/26 06:01:46;;;;;;;2.50;1.67;;;11.30;97.30;;;;;;4952445;28;20175;-84
2022/12/26 06:04:12;;;;;;;1.80;1.53;;;11.30;97.30;;;;;;4948344;28;20250;-84
2022/12/26 06:06:37;;;;;;;1.03;0.97;;;11.30;97.30;;;;;;4945189;29;20195;-83
2022/12/26 06:09:03;;;;;;;2.03;1.67;;;11.30;97.30;;;;;;4953379;29;20194;-84
2022/12/26 06:11:28;;;;;;;1.80;1.70;;;11.30;97.30;;;;;;4956411;28;20183;-84
2022/12/26 06:13:54;;;;;;;2.40;2.20;;;11.30;97.30;;;;;;4956192;28;20229;-86
2022/12/26 06:16:20;;;;;;;1.40;1.30;;;11.30;97.30;;;;;;4953644;28;20225;-85
2022/12/26 06:18:47;;;;;;;15.13;2.00;;;11.20;97.30;;;;;;4951582;29;20470;-86
2022/12/26 06:21:19;;;;;;;1.37;1.30;;;11.20;97.30;;;;;;4957209;28;20179;-89
2022/12/26 06:23:44;;;;;;;2.27;1.97;;;11.20;97.30;;;;;;4950594;28;20478;-84
2022/12/26 06:26:11;;;;;;;1.10;1.00;;;11.20;97.30;;;;;;4949738;28;20451;-83
2022/12/26 06:28:39;;;;;;;1.93;1.40;;;11.10;97.30;;;;;;4955788;29;20267;-84
2022/12/26 06:31:08;;;;;;;1.23;1.10;;;11.10;97.30;;;;;;4961889;28;20437;-83
2022/12/26 06:33:34;;;;;;;1.20;1.10;;;11.10;97.30;;;;;;4957663;28;20472;-85
2022/12/26 06:36:08;;;;;;;1.47;1.37;;;11.10;97.30;;;;;;4958489;28;20528;-84
2022/12/26 06:38:34;;;;;;;2.03;1.37;;;11.00;97.30;;;;;;4952771;29;20198;-85
2022/12/26 06:41:00;;;;;;;1.60;1.50;;;11.00;97.30;;;;;;4955398;29;20510;-84
2022/12/26 06:43:25;;;;;;;2.20;2.07;;;10.90;97.30;;;;;;4947198;28;20250;-88
2022/12/26 06:45:55;;;;;;;1.20;1.10;;;10.80;97.30;;;;;;4952788;28;20194;-85
2022/12/26 06:48:21;;;;;;;1.37;1.27;;;10.70;97.30;;;;;;4955251;28;20266;-86
2022/12/26 06:50:47;;;;;;;1.37;1.27;;;10.70;97.30;;;;;;4959463;28;20784;-87
2022/12/26 06:53:12;;;;;;;5.30;2.90;;;10.60;97.30;;;;;;4954856;29;20359;-86
2022/12/26 06:55:37;;;;;;;2.20;1.10;;;10.50;97.30;;;;;;4954059;28;20187;-88
2022/12/26 06:58:03;;;;;;;3.37;1.67;;;10.40;97.30;;;;;;4956947;28;20183;-84
2022/12/26 07:00:28;;;;;;;1.00;0.90;;;10.40;97.30;;;;;;4954624;28;20179;-88
2022/12/26 07:02:54;;;;;;;2.20;1.63;;;10.30;97.30;;;;;;4952613;28;20199;-88
2022/12/26 07:05:20;;;;;;;1.13;1.07;;;10.30;97.30;;;;;;4949194;28;20187;-85
2022/12/26 07:07:50;;;;;;;21.43;2.03;;;10.30;97.30;;;;;;4952518;28;20195;-89
2022/12/26 07:10:15;;;;;;;1.43;1.33;;;10.20;97.30;;;;;;4952948;29;20554;-84
2022/12/26 07:12:41;;;;;;;1.73;1.63;;;10.30;97.30;;;;;;4953584;28;20445;-83
2022/12/26 07:15:08;;;;;;;3.17;2.13;;;10.30;97.30;;;;;;4957429;28;20585;-87
2022/12/26 07:17:35;;;;;;;1.50;1.40;;;10.50;97.30;;;;;;4952378;29;20262;-84
2022/12/26 07:20:01;;;;;;;2.60;1.40;;;10.60;97.30;;;;;;4945526;28;20429;-85
2022/12/26 07:22:28;;;;;;;2.13;1.97;;;10.70;97.30;;;;;;4957106;28;20841;-87
2022/12/26 07:24:53;;;;;;;1.57;1.30;;;10.80;97.30;;;;;;4951187;28;20527;-87
2022/12/26 07:27:18;;;;;;;1.53;1.17;;;10.80;97.30;;;;;;4955519;28;20494;-83
2022/12/26 07:29:45;;;;;;;1.67;1.57;;;10.80;97.30;;;;;;4954395;29;20282;-82
2022/12/26 07:32:11;;;;;;;1.87;1.20;;;10.90;97.30;;;;;;4951418;28;20207;-85
2022/12/26 07:34:37;;;;;;;1.67;1.60;;;10.90;97.30;;;;;;4954950;29;20458;-83
2022/12/26 07:37:02;;;;;;;1.13;1.03;;;11.00;97.30;;;;;;4951972;28;20240;-86
2022/12/26 07:39:38;;;;;;;1.83;1.40;;;11.00;97.30;;;;;;4956792;28;20198;-83
2022/12/26 07:42:04;;;;;;;1.40;1.30;;;11.00;97.30;;;;;;4953679;28;20194;-87
2022/12/26 07:44:31;;;;;;;1.97;1.87;;;11.10;97.30;;;;;;4951059;29;20439;-83
2022/12/26 07:46:58;;;;;;;2.07;1.93;;;11.10;97.30;;;;;;4946299;28;20187;-83
2022/12/26 07:49:23;;;;;;;5.47;2.80;;;11.20;97.30;;;;;;4954555;29;20428;-84
2022/12/26 07:51:49;;;;;;;1.03;0.93;;;11.20;97.30;;;;;;4951115;28;20441;-86
2022/12/26 07:54:15;;;;;;;1.83;1.10;;;11.20;97.30;;;;;;4952287;29;20274;-87
2022/12/26 07:56:41;;;;;;;3.57;1.40;;;11.30;97.30;;;;;;4947974;29;20182;-85
2022/12/26 07:59:11;;;;;;;1.20;1.10;;;11.30;97.30;;;;;;4955018;29;20185;-86
2022/12/26 08:01:37;;;;;;;1.17;1.07;;;11.30;97.30;;;;;;4955248;28;20269;-83
2022/12/26 08:04:02;;;;;;;1.30;1.20;;;11.40;97.30;;;;;;4954346;28;20553;-83
2022/12/26 08:06:28;;;;;;;2.00;1.40;;;11.40;97.30;;;;;;4951674;28;20559;-88
2022/12/26 08:08:53;;;;;;;1.33;1.20;;;11.50;97.30;;;;;;4952879;28;20251;-85
2022/12/26 08:11:22;;;;;;;1.60;1.53;;;11.50;97.30;;;;;;4957025;28;20565;-82
2022/12/26 08:13:48;;;;;;;1.20;1.10;;;11.60;97.30;;;;;;4939884;29;20687;-83
2022/12/26 08:16:14;;;;;;;1.87;1.77;;;11.60;97.30;;;;;;4952587;28;21107;-85
2022/12/26 08:18:40;;;;;;;1.17;1.10;;;11.60;97.30;;;;;;4954019;28;20183;-83
2022/12/26 08:21:05;;;;;;;1.00;0.90;;;11.60;97.30;;;;;;4954578;29;20418;-87
2022/12/26 08:23:32;;;;;;;1.50;1.40;;;11.70;97.30;;;;;;4955205;28;20214;-85
2022/12/26 08:25:58;;;;;;;3.17;2.10;;;11.70;97.30;;;;;;4954819;28;20197;-84
2022/12/26 08:28:23;;;;;;;6.13;2.20;;;11.70;97.30;;;;;;4954926;29;20813;-88
2022/12/26 08:30:49;;;;;;;0.97;0.87;;;11.70;97.30;;;;;;4955484;29;20187;-85
2022/12/26 08:33:15;;;;;;;1.70;1.60;;;11.70;97.30;;;;;;4950988;28;20212;-84
2022/12/26 08:35:40;;;;;;;2.07;1.33;;;11.70;97.30;;;;;;4949754;28;20175;-88
2022/12/26 08:38:06;;;;;;;1.93;1.77;;;11.70;97.30;;;;;;4955609;28;20445;-86
2022/12/26 08:40:32;;;;;;;3.93;1.40;;;11.70;97.30;;;;;;4956410;29;20642;-82
2022/12/26 08:42:58;;;;;;;1.70;1.60;;;11.70;97.30;;;;;;4949246;29;20492;-83
2022/12/26 08:45:23;;;;;;;4.50;2.10;;;11.80;97.30;;;;;;4949174;28;20655;-83
2022/12/26 08:47:49;;;;;;;1.90;1.80;;;11.80;97.30;;;;;;4951557;28;20187;-85
2022/12/26 08:50:15;;;;;;;2.67;1.73;;;11.80;97.30;;;;;;4959279;28;20685;-85
2022/12/26 08:52:41;;;;;;;3.83;1.77;;;11.80;97.30;;;;;;4955015;28;20479;-84
2022/12/26 08:55:07;;;;;;;1.93;1.57;;;11.80;97.30;;;;;;4952888;28;20485;-83
2022/12/26 08:57:33;;;;;;;1.73;1.63;;;11.80;97.30;;;;;;4953734;28;20583;-83
2022/12/26 08:59:58;;;;;;;3.80;1.83;;;11.80;97.30;;;;;;4946539;28;20446;-83
2022/12/26 09:02:24;;;;;;;1.27;1.20;;;11.80;97.30;;;;;;4948418;28;20565;-84
2022/12/26 09:04:50;;;;;;;2.30;1.37;;;11.80;97.30;;;;;;4954088;29;20179;-83
2022/12/26 09:07:16;;;;;;;3.50;1.83;;;11.80;97.30;;;;;;4955474;28;20435;-85
2022/12/26 09:09:42;;;;;;;3.10;2.30;;;11.80;97.30;;;;;;4953647;28;20442;-82
2022/12/26 09:12:08;;;;;;;1.63;1.47;;;11.80;97.30;;;;;;4947136;28;21027;-83
2022/12/26 09:14:34;;;;;;;2.77;1.40;;;11.80;97.30;;;;;;4949669;28;20455;-82
2022/12/26 09:16:59;;;;;;;1.00;0.90;;;11.80;97.30;;;;;;4953899;28;20179;-83
2022/12/26 09:19:28;;;;;;;3.83;1.77;;;11.90;97.30;;;;;;4948133;28;20186;-82
2022/12/26 09:22:49;;;;;;;1.00;0.90;;;11.90;97.30;;;;;;4959954;28;20194;-82
2022/12/26 09:24:40;;;;;;;1.30;1.20;;;11.90;97.30;;;;;;4956201;28;20415;-84
2022/12/26 09:27:06;;;;;;;2.50;1.60;;;11.90;97.30;;;;;;4958227;28;20496;-83
2022/12/26 09:29:31;;;;;;;1.90;1.80;;;11.90;97.30;;;;;;4957573;28;20243;-85
2022/12/26 09:31:56;;;;;;;1.53;1.43;;;12.00;97.30;;;;;;4950266;29;20184;-82
2022/12/26 09:34:22;;;;;;;2.20;2.07;;;12.00;97.30;;;;;;4952341;29;20219;-83
2022/12/26 09:36:47;;;;;;;1.37;1.27;;;12.00;97.30;;;;;;4956224;28;20199;-85
2022/12/26 09:39:13;;;;;;;1.50;1.40;;;12.00;97.30;;;;;;4954386;29;20191;-84
2022/12/26 09:41:55;;;;;;;4.30;1.97;;;12.00;97.30;;;;;;4952711;29;20236;-82
2022/12/26 09:44:43;;;;;;;2.20;1.43;;;12.00;97.30;;;;;;4953859;28;20174;-86
2022/12/26 09:47:25;;;;;;;1.60;1.17;;;12.00;97.30;;;;;;4946904;28;20800;-86
2022/12/26 09:50:11;;;;;;;2.00;1.73;;;12.00;97.30;;;;;;4952623;29;20437;-84
2022/12/26 09:52:55;;;;;;;1.03;1.00;;;12.00;97.30;;;;;;4983724;22;20551;-90
2022/12/26 09:55:39;;;;;;;1.23;1.13;;;12.00;97.30;;;;;;4981158;28;20508;-88
2022/12/26 09:58:17;;;;;;;1.20;1.10;;;12.00;97.30;;;;;;4969880;28;20501;-89
2022/12/26 10:00:49;;;;;;;1.07;0.97;;;11.90;97.30;;;;;;4970054;28;20421;-89
2022/12/26 10:03:14;;;;;;;3.03;1.23;;;11.80;97.30;;;;;;4970877;28;20445;-89
2022/12/26 10:05:56;;;;;;;1.63;1.53;;;11.70;97.30;;;;;;4971227;28;20426;-89
2022/12/26 10:08:57;;;;;;;2.33;1.87;;;11.60;97.30;;;;;;4971017;28;20182;-88
2022/12/26 10:11:30;;;;;;;1.60;1.50;;;11.60;97.30;;;;;;4980123;28;20425;-89
2022/12/26 10:14:02;;;;;;;1.40;1.30;;;11.50;97.30;;;;;;4983219;28;20943;-89
2022/12/26 10:16:40;;;;;;;1.70;1.57;;;11.40;97.30;;;;;;4989784;28;20807;-90
2022/12/26 10:19:21;;;;;;;1.40;1.30;;;11.40;97.30;;;;;;4989551;28;20644;-90
2022/12/26 10:22:22;;;;;;;1.10;1.07;;;11.30;97.30;;;;;;4989676;28;20820;-89
2022/12/26 10:24:49;;;;;;;2.17;1.60;;;11.20;97.30;;;;;;4989998;28;20934;-89
2022/12/26 10:27:17;;;;;;;1.87;1.77;;;11.20;97.30;;;;;;4990793;28;20463;-89
2022/12/26 10:29:58;;;;;;;4.30;2.80;;;11.20;97.30;;;;;;4989502;28;20428;-88
2022/12/26 10:32:34;;;;;;;1.67;1.57;;;11.20;97.30;;;;;;4989127;28;20435;-89
2022/12/26 10:35:08;;;;;;;4.30;1.73;;;11.20;97.30;;;;;;4990830;28;20461;-89
2022/12/26 10:37:40;;;;;;;2.03;1.57;;;11.10;97.30;;;;;;4989745;28;20424;-89
2022/12/26 10:40:23;;;;;;;4.93;1.77;;;11.20;97.30;;;;;;4977531;28;20824;-89
2022/12/26 10:42:54;;;;;;;1.20;1.10;;;11.20;97.30;;;;;;4981800;28;20962;-89
2022/12/26 10:45:26;;;;;;;1.63;1.57;;;11.20;97.30;;;;;;4989734;28;20467;-89
2022/12/26 10:47:53;;;;;;;7.20;2.70;;;11.20;97.30;;;;;;4989479;28;20456;-89
2022/12/26 10:50:23;;;;;;;4.50;2.97;;;11.20;97.30;;;;;;4992268;28;20467;-89
2022/12/26 10:52:49;;;;;;;8.10;3.80;;;11.20;97.30;;;;;;4992862;28;20835;-89
2022/12/26 10:55:22;;;;;;;2.87;2.73;;;11.30;97.30;;;;;;4993195;28;20461;-88
2022/12/26 10:57:50;;;;;;;8.67;2.03;;;11.20;97.30;;;;;;4992652;28;20413;-89
2022/12/26 11:00:22;;;;;;;1.03;1.03;;;11.20;97.30;;;;;;4992562;28;20459;-89
2022/12/26 11:03:09;;;;;;;1.33;1.23;;;11.20;97.30;;;;;;4992557;28;20433;-89
2022/12/26 11:05:48;;;;;;;3.60;2.10;;;11.10;97.30;;;;;;4993003;28;20429;-88
2022/12/26 11:08:33;;;;;;;2.87;2.10;;;11.00;97.30;;;;;;4992554;28;20515;-88
2022/12/26 11:11:13;;;;;;;1.00;0.90;;;10.90;97.30;;;;;;4993427;28;20424;-88
2022/12/26 11:13:47;;;;;;;2.67;1.67;;;10.80;97.30;;;;;;4992379;28;20467;-88
2022/12/26 11:16:26;;;;;;;1.43;1.07;;;10.80;97.30;;;;;;4993578;28;20470;-89
2022/12/26 11:18:56;;;;;;;1.63;1.47;;;10.70;97.30;;;;;;4992586;28;20788;-88
2022/12/26 11:21:24;;;;;;;1.00;0.90;;;10.60;97.30;;;;;;4984308;28;20442;-89
2022/12/26 11:24:09;;;;;;;1.20;1.10;;;10.60;97.30;;;;;;4979361;28;20466;-89
2022/12/26 11:26:36;;;;;;;1.03;1.03;;;10.50;97.30;;;;;;4982045;28;20432;-89
2022/12/26 11:29:09;;;;;;;1.10;1.00;;;10.50;97.30;;;;;;4972592;28;20429;-89
2022/12/26 11:31:36;;;;;;;1.33;1.10;;;10.40;97.30;;;;;;4973590;28;20776;-89
2022/12/26 11:34:07;;;;;;;1.00;0.90;;;10.40;97.30;;;;;;4973565;28;20505;-89
2022/12/26 11:36:36;;;;;;;1.13;1.03;;;10.40;97.30;;;;;;4972656;28;20464;-89
2022/12/26 11:39:06;;;;;;;3.23;1.90;;;10.40;97.30;;;;;;4986321;28;20786;-89
2022/12/26 11:41:38;;;;;;;1.00;0.90;;;10.30;97.30;;;;;;4991311;28;20421;-89
2022/12/26 11:44:12;;;;;;;3.43;1.97;;;10.30;97.30;;;;;;4990400;28;21095;-88
2022/12/26 11:46:47;;;;;;;2.23;2.03;;;10.30;97.30;;;;;;4977725;28;20421;-90
2022/12/26 11:49:16;;;;;;;1.77;1.67;;;10.20;97.30;;;;;;4972185;28;20507;-88
2022/12/26 11:51:46;;;;;;;1.20;1.10;;;10.20;97.30;;;;;;4970439;28;20546;-89
2022/12/26 11:54:18;;;;;;;1.40;1.30;;;10.10;97.30;;;;;;4972400;28;21023;-89
2022/12/26 11:56:44;;;;;;;0.90;0.80;;;10.10;97.30;;;;;;4971477;28;20450;-88
2022/12/26 11:59:19;;;;;;;1.17;1.10;;;10.10;97.30;;;;;;4972254;28;20877;-89
2022/12/26 12:01:45;;;;;;;1.30;1.20;;;10.00;97.30;;;;;;4979257;28;20213;-89
2022/12/26 12:04:10;;;;;;;2.27;2.07;;;10.00;97.30;;;;;;4974848;28;20496;-89
2022/12/26 12:06:48;;;;;;;15.03;2.93;;;10.00;97.30;;;;;;4971830;28;20422;-89
2022/12/26 12:09:36;;;;;;;1.13;1.03;;;10.00;97.30;;;;;;4971930;28;20186;-89
2022/12/26 12:12:18;;;;;;;1.10;1.00;;;9.90;97.30;;;;;;4971907;28;20457;-89
2022/12/26 12:15:12;;;;;;;1.03;1.03;;;9.90;97.30;;;;;;4971823;28;20469;-88
2022/12/26 12:18:04;;;;;;;1.30;1.20;;;9.90;97.30;;;;;;4972118;28;20431;-89
2022/12/26 12:20:57;;;;;;;1.27;1.17;;;9.90;97.30;;;;;;4977127;28;20417;-88
2022/12/26 12:23:51;;;;;;;1.67;1.20;;;9.90;97.30;;;;;;4988841;28;20833;-87
2022/12/26 12:26:39;;;;;;;1.53;1.20;;;9.90;97.30;;;;;;4990765;28;20421;-87
2022/12/26 12:29:30;;;;;;;1.13;1.03;;;9.90;97.30;;;;;;4989267;28;20413;-87
2022/12/26 12:32:06;;;;;;;1.30;1.20;;;9.90;97.30;;;;;;4988161;28;20421;-86
2022/12/26 12:35:01;;;;;;;1.40;1.30;;;9.90;97.30;;;;;;4990103;28;20523;-88
2022/12/26 12:37:54;;;;;;;1.97;1.87;;;9.90;97.30;;;;;;4992674;28;20410;-89
2022/12/26 12:40:38;;;;;;;3.63;2.50;;;9.90;97.30;;;;;;4992725;28;20896;-88
2022/12/26 12:43:23;;;;;;;1.17;1.10;;;9.90;97.30;;;;;;4993892;28;20425;-89
2022/12/26 12:46:10;;;;;;;1.00;0.90;;;9.90;97.30;;;;;;4992633;28;20407;-88
2022/12/26 12:48:52;;;;;;;1.33;1.23;;;9.80;97.30;;;;;;4992482;28;20404;-88
2022/12/26 12:51:17;;;;;;;1.03;1.00;;;9.80;97.30;;;;;;4992457;28;20397;-88
2022/12/26 12:54:21;;;;;;;1.40;1.30;;;9.80;97.30;;;;;;4992066;28;20472;-88
2022/12/26 12:57:04;;;;;;;1.10;1.00;;;9.70;97.30;;;;;;4992502;28;20178;-88
2022/12/26 12:59:50;;;;;;;1.20;1.10;;;9.70;97.30;;;;;;4970669;28;20418;-88
2022/12/26 13:02:38;;;;;;;1.10;1.00;;;9.70;97.30;;;;;;4963365;28;20465;-89
2022/12/26 13:05:19;;;;;;;1.00;0.90;;;9.70;97.30;;;;;;4970780;28;20418;-89
2022/12/26 13:07:55;;;;;;;1.00;0.90;;;9.70;97.30;;;;;;4970742;28;20465;-89
2022/12/26 13:10:34;;;;;;;0.90;0.80;;;9.70;97.30;;;;;;4987101;28;21086;-87
2022/12/26 13:13:28;;;;;;;1.07;0.97;;;9.80;97.30;;;;;;4987733;28;20527;-89
2022/12/26 13:16:01;;;;;;;1.00;0.90;;;9.80;97.30;;;;;;4987706;28;20565;-87
2022/12/26 13:18:33;;;;;;;1.53;0.80;;;9.80;97.30;;;;;;4989555;28;20936;-89
2022/12/26 13:21:05;;;;;;;0.90;0.80;;;9.80;97.30;;;;;;4989025;28;20464;-88
2022/12/26 13:26:40;;;;;;;1.10;1.00;;;9.80;97.30;;;;;;4990904;28;20464;-88
2022/12/26 13:29:32;;;;;;;1.20;1.00;;;9.80;97.30;;;;;;4989346;28;20898;-88
2022/12/26 13:31:59;;;;;;;0.90;0.80;;;9.80;97.30;;;;;;4987962;28;20413;-89
2022/12/26 13:34:25;;;;;;;1.00;0.90;;;9.80;97.30;;;;;;4988024;28;20579;-89
2022/12/26 13:36:54;;;;;;;2.10;1.50;;;9.90;97.30;;;;;;4990039;28;20452;-88
2022/12/26 13:39:27;;;;;;;2.90;1.40;;;9.90;97.30;;;;;;4988904;28;20173;-89
2022/12/26 13:44:42;;;;;;;0.90;0.80;;;9.90;97.30;;;;;;4991722;28;20436;-90
2022/12/26 13:47:30;;;;;;;1.07;0.97;;;9.90;97.30;;;;;;4990431;28;20939;-90
2022/12/26 13:49:55;;;;;;;1.13;0.90;;;9.90;97.30;;;;;;4990716;28;20255;-89
2022/12/26 13:52:34;;;;;;;1.20;1.10;;;10.00;97.30;;;;;;4992820;28;20448;-90
2022/12/26 13:55:05;;;;;;;0.80;0.80;;;10.00;97.30;;;;;;5011348;28;20276;-91
2022/12/26 13:57:40;;;;;;;2.70;2.50;;;10.00;97.30;;;;;;5011514;28;20409;-93
2022/12/26 14:00:06;;;;;;;3.33;1.10;;;10.00;97.30;;;;;;5011299;28;20404;-89
2022/12/26 14:02:57;;;;;;;0.80;0.70;;;10.00;97.30;;;;;;5010040;28;20459;-90
2022/12/26 14:05:51;;;;;;;0.87;0.77;;;10.00;97.30;;;;;;5016489;28;20468;-90
2022/12/26 14:08:47;;;;;;;2.90;1.60;;;10.10;97.30;;;;;;4986142;28;20824;-89
2022/12/26 14:11:48;;;;;;;0.90;0.90;;;10.10;97.30;;;;;;4986747;28;20436;-88
2022/12/26 14:14:26;;;;;;;1.00;0.90;;;10.10;97.30;;;;;;4958162;28;20487;-89
2022/12/26 14:17:05;;;;;;;0.87;0.77;;;10.10;97.30;;;;;;4989325;28;20413;-88
2022/12/26 14:19:44;;;;;;;0.97;0.87;;;10.10;97.30;;;;;;4995398;28;20762;-89
2022/12/26 14:22:22;;;;;;;1.40;1.30;;;10.10;97.30;;;;;;4987280;28;20425;-89
2022/12/26 14:25:17;;;;;;;1.00;0.90;;;10.10;97.30;;;;;;4992834;28;20471;-88
2022/12/26 14:28:03;;;;;;;1.37;0.93;;;10.10;97.30;;;;;;4990707;28;20421;-88
2022/12/26 14:30:51;;;;;;;2.43;1.23;;;10.10;97.30;;;;;;4999699;28;20508;-89
2022/12/26 14:33:38;;;;;;;1.33;1.20;;;10.10;97.30;;;;;;4992512;28;20433;-89
2022/12/26 14:36:27;;;;;;;1.00;0.90;;;10.10;97.30;;;;;;4991960;28;20436;-89
2022/12/26 14:39:12;;;;;;;0.90;0.80;;;10.10;97.30;;;;;;5001696;28;20444;-89
2022/12/26 14:45:00;;;;;;;1.23;1.13;;;10.00;97.30;;;;;;4990282;28;20476;-89
2022/12/26 14:47:43;;;;;;;1.50;1.40;;;10.00;97.30;;;;;;4989538;28;20413;-89
2022/12/26 14:50:30;;;;;;;4.00;1.90;;;9.90;97.30;;;;;;4989466;28;20424;-89
2022/12/26 14:53:18;;;;;;;2.00;1.53;;;9.90;97.30;;;;;;4991442;28;20484;-89
2022/12/26 14:55:51;;;;;;;2.63;1.83;;;9.90;97.30;;;;;;4991749;28;20923;-89
2022/12/26 14:58:43;;;;;;;1.70;1.60;;;9.90;97.30;;;;;;4993497;28;20540;-90
2022/12/26 15:01:10;;;;;;;3.70;1.47;;;9.90;97.30;;;;;;4985726;28;20416;-89
2022/12/26 15:03:44;;;;;;;5.23;2.27;;;9.80;97.30;;;;;;4992536;28;20452;-89
2022/12/26 15:06:19;;;;;;;4.37;2.37;;;9.80;97.30;;;;;;4992627;28;20832;-89
2022/12/26 15:08:47;;;;;;;1.63;1.57;;;9.70;97.30;;;;;;4992807;28;20947;-89
2022/12/26 15:11:13;;;;;;;1.47;1.40;;;9.70;97.30;;;;;;4992597;28;20904;-89
2022/12/26 15:14:08;;;;;;;3.27;2.90;;;9.70;97.30;;;;;;4992349;28;20487;-89
2022/12/26 15:17:03;;;;;;;3.33;1.77;;;9.60;97.30;;;;;;4982290;28;20237;-89
2022/12/26 15:19:58;;;;;;;1.10;1.00;;;9.50;97.30;;;;;;4991675;28;20453;-89
2022/12/26 15:22:58;;;;;;;2.30;1.60;;;9.50;97.30;;;;;;4992441;28;20467;-89
2022/12/26 15:25:43;;;;;;;6.20;3.77;;;9.40;97.30;;;;;;4992243;28;20413;-89
2022/12/26 15:28:26;;;;;;;3.63;3.00;;;9.40;97.30;;;;;;4992299;28;20421;-89
2022/12/26 15:31:13;;;;;;;3.67;3.37;;;9.40;97.30;;;;;;4991891;28;20420;-89